This is the latest recevied weather packets stored in our database for station/object VA5EVR-13. If no packets are shown the sender has not sent any weather packets the latest 10 day(s).
| Time | Temp. | Humidity | Pressure | Rain* | Wind** | Luminosity | Snow |
|---|---|---|---|---|---|---|---|
| 1777789812 | 8.33° C | 54% | 88.8 hPa | 0 mm | - | - | - |
| 1777789211 | 8.33° C | 53% | 88.8 hPa | 0 mm | - | - | - |
| 1777788611 | 8.33° C | 53% | 88.8 hPa | 0 mm | - | - | - |
| 1777788012 | 7.78° C | 52% | 88.8 hPa | 0 mm | - | - | - |
| 1777787411 | 7.78° C | 52% | 88.8 hPa | 0 mm | - | - | - |
| 1777786811 | 7.22° C | 52% | 88.8 hPa | 0 mm | - | - | - |
| 1777786212 | 6.11° C | 52% | 88.8 hPa | 0 mm | - | - | - |
| 1777785612 | 4.44° C | 53% | 88.8 hPa | 0 mm | - | - | - |
| 1777785012 | 3.89° C | 52% | 88.8 hPa | 0 mm | - | - | - |
| 1777784412 | 3.33° C | 52% | 88.8 hPa | 0 mm | - | - | - |
| 1777783812 | 3.89° C | 57% | 88.8 hPa | 0 mm | - | - | - |
| 1777783212 | 3.89° C | 54% | 88.8 hPa | 0 mm | - | - | - |
| 1777782612 | 3.89° C | 52% | 88.8 hPa | 0 mm | - | - | - |
| 1777782012 | 3.89° C | 64% | 88.8 hPa | 0 mm | - | - | - |
| 1777781411 | 4.44° C | 61% | 88.8 hPa | 0 mm | - | - | - |
| 1777780812 | 4.44° C | 60% | 88.8 hPa | 0 mm | - | - | - |
| 1777780212 | 5° C | 56% | 88.8 hPa | 0 mm | - | - | - |
| 1777779610 | 5° C | 56% | 88.8 hPa | 0 mm | - | - | - |
| 1777779012 | 5.56° C | 51% | 88.8 hPa | 0 mm | - | - | - |
| 1777778412 | 6.11° C | 51% | 88.8 hPa | 0 mm | - | - | - |
| 1777777811 | -17.78° C | 100% | 0 hPa | 0 mm | - | - | - |
| 1777777212 | 7.22° C | 48% | 88.8 hPa | 0 mm | - | - | - |
| 1777776612 | 8.33° C | 48% | 88.8 hPa | 0 mm | - | - | - |
| 1777776012 | 9.44° C | 47% | 88.8 hPa | 0 mm | - | - | - |
| 1777775411 | 10.56° C | 48% | 88.8 hPa | 0 mm | - | - | - |
* Rain latest hour (hover to see other rain measurements)
** Current wind speed in m/s (hover to see current wind gust speed)